Weather observations for the past three days for
Waterloo, Waterloo Municipal Airport
Imperial (Metric)
Date Time (cdt) Wind (mph) Vis. (mi.) Weather Sky Cond. Temperature (ºF) Relative Humidity Wind Chill (°F) Heat Index (°F) Pressure Precipitation (in)
Air Dwpt 6 hour altimeter (in) sea level (mb) 1 hr 3 hr 6 hr
Max. Min.
06 17:54 SE 6 10.00 Fair CLR 75 66.9 76% 76 30.04 1016.9
06 16:54 E 8 10.00 Fair CLR 75.9 66.9 74% 77 30.02 1016.1
06 15:54 SE 9 10.00 Fair CLR 75 66.9 76% 76 30.04 1016.7
06 14:54 E 9 10.00 Overcast OVC021 75 66.9 76% 76 30.07 1018.0
06 13:54 SE 10 10.00 Mostly Cloudy BKN020 75.9 68 77% 77 30.08 1018.1
06 12:54 SE 6 10.00 Mostly Cloudy BKN018 75 66.9 75 69.1 76% 76 30.09 1018.6
06 11:54 E 13 10.00 Partly Cloudy SCT015 75 66.9 76% 76 30.1 1018.7
06 10:54 E 8 10.00 Overcast OVC012 73 66.9 81% 30.1 1018.7
06 09:54 E 8 10.00 Overcast OVC009 72 68 87% 30.1 1018.9
06 08:54 SE 10 9.00 Overcast OVC007 70 66.9 90% 30.1 1018.9
06 07:54 SE 9 8.00 Overcast OVC007 69.1 66.9 93% 30.08 1018.1
06 06:54 E 8 10.00 Overcast OVC007 69.1 66.9 69.1 66 93% 30.07 1017.6
06 05:54 SE 7 8.00 Overcast OVC008 69.1 68 96% 30.06 1017.2
06 04:54 E 3 8.00 Fair CLR 66.9 66 97% 30.05 1017.1
06 03:54 E 7 10.00 Fair CLR 68 66.9 96% 30.02 1016.1
06 02:54 E 7 10.00 Fair CLR 69.1 66.9 93% 30.03 1016.2
06 01:54 E 8 10.00 Fair CLR 68 66.9 96% 30.03 1016.4
06 00:54 E 7 10.00 Fair CLR 69.1 68 78.1 69.1 96% 30.04 1016.7
05 23:54 E 7 10.00 Fair CLR 71.1 69.1 94% 30.03 1016.1
05 22:54 E 7 10.00 Fair CLR 73 70 90% 30.03 1016.1
05 21:54 NE 7 10.00 Fair CLR 71.1 70 96% 30.02 1016.0
05 20:54 NE 5 10.00 Fair CLR 73.9 71.1 91% 30 1015.3
05 19:54 E 5 10.00 Fair CLR 75 72 90% 74 29.98 1014.8
05 18:54 E 7 10.00 Fair CLR 78.1 72 84 78.1 82% 80 29.98 1014.5
05 17:54 NE 10 10.00 Fair CLR 80.1 72 76% 84 29.97 1014.4
05 16:54 E 13 10.00 Fair CLR 82 73.9 77% 88 29.95 1013.5
05 15:54 E 12 10.00 Fair CLR 82.9 75 77% 90 29.96 1013.8
05 12:54 NE 13 10.00 Overcast SCT016 BKN021 OVC035 82.9 77 86 69.1 82% 92 30.01 1015.6
05 11:54 NE 8 10.00 Partly Cloudy SCT019 84 75.9 77% 93 30 1015.2
05 10:54 NE 8 10.00 Fair CLR 82.9 75.9 79% 91 30.01 1015.5
05 09:54 NE 6 10.00 Fair CLR 79 73 82% 82 29.99 1014.8
05 08:54 N 5 10.00 Fair CLR 77 72 85% 78 29.98 1014.7
05 07:54 Calm 10.00 Fair CLR 71.1 69.1 94% 29.96 1013.9
05 06:54 N 3 10.00 Fair CLR 69.1 68 73 68 96% 29.94 1013.4
05 05:54 Calm 10.00 Fair CLR 69.1 68 96% 29.93 1013.0
05 04:54 N 3 10.00 Fair CLR 70 69.1 97% 29.92 1012.4
05 03:54 NE 6 10.00 Fair CLR 70 69.1 97% 29.93 1012.7
05 02:54 E 3 10.00 Fair CLR 71.1 70 96% 29.93 1012.9
05 01:54 SE 3 10.00 Fair CLR 73 70 90% 29.93 1012.7
05 00:54 NE 3 10.00 Fair CLR 71.1 70 82 71.1 96% 29.94 1013.0
04 23:54 Calm 10.00 Fair CLR 72 70 94% 29.92 1012.3
04 22:54 Calm 10.00 Fair CLR 72 70 94% 29.92 1012.4
04 21:54 Calm 10.00 Fair CLR 73.9 71.1 91% 29.91 1012.1
04 20:54 NE 3 10.00 Fair CLR 75 71.1 88% 75 29.9 1011.8
04 19:54 SE 6 10.00 Fair CLR 79 70 74% 82 29.9 1011.7
04 18:54 E 8 10.00 Fair CLR 81 72 91 81 74% 85 29.91 1012.1
04 17:54 E 6 10.00 Overcast BKN043 BKN050 OVC110 86 77 75% 97 29.9 1012.0
04 16:54 NE 8 10.00 Mostly Cloudy FEW048 BKN110 86 77 75% 97 29.88 1011.1
04 15:54 N 3 10.00 Mostly Cloudy SCT095 BKN110 84 75.9 77% 93 29.87 1010.9
04 14:54 W 6 10.00 Fair CLR 87.1 73.9 65% 95 29.88 1011.2
04 13:54 S 12 10.00 Fair CLR 90 73.9 59% 99 29.88 1010.8
04 12:54 SW 9 10.00 Fair CLR 88 73 89.1 73 61% 96 29.89 1011.4
04 11:54 S 13 10.00 Fair CLR 87.1 73 63% 95 29.91 1011.9
04 10:54 SW 3 10.00 Fair CLR 86 72 63% 92 29.91 1012.0
04 09:54 S 8 10.00 A Few Clouds FEW100 82 72 72% 87 29.89 1011.4
04 08:54 SW 6 10.00 Fair CLR 81 71.1 72% 85 29.89 1011.4
04 07:54 S 7 10.00 Fair CLR 75 70 84% 75 29.88 1011.0
04 06:54 SE 6 10.00 Mostly Cloudy BKN100 73.9 70 75.9 71.1 88% 29.88 1010.9
04 05:54 E 5 10.00 Fair CLR 71.1 70 96% 29.86 1010.5
04 04:54 E 5 10.00 Partly Cloudy FEW095 SCT110 72 70 94% 29.86 1010.6
04 02:54 SE 5 10.00 Fair CLR 72 70 94% 29.85 1010.1
04 01:54 S 7 10.00 Fair CLR 75 71.1 88% 75 29.86 1010.3
04 00:54 S 6 10.00 Fair CLR 75.9 72 87.1 75.9 88% 76 29.86 1010.3
03 23:54 S 6 10.00 Fair CLR 77 72 85% 78 29.86 1010.4
03 22:54 S 6 10.00 Fair CLR 78.1 73.9 87% 81 29.86 1010.3
03 21:54 SE 6 10.00 Fair CLR 78.1 73.9 87% 81 29.85 1010.3
03 20:54 SE 5 10.00 Fair CLR 81 73.9 79% 86 29.84 1009.9
03 19:54 SE 6 10.00 Fair CLR 82.9 73 72% 89 29.82 1009.1
Date Time (cdt) Wind (mph) Vis. (mi.) Weather Sky Cond. Air Dwpt Max. Min. Relative Humidity Wind Chill (°F) Heat Index (°F) altimeter (in) sea level (mb) 1 hr 3 hr 6 hr
6 hour
Temperature (ºF) Pressure Precipitation (in)